Terminal Aerodrome Forecast
Issued by NWS Charleston, WV

Current Version | Previous Version | Text Only | Print | Product List | Glossary Off
Versions: 1 2 3 4 5 6 7 8 9 10 11 12 13 14 15 16 17 18 19 20 21 22 23 24 25

758
FTUS41 KRLX 020528
TAFEKN
TAF
KEKN 020528Z 0206/0306 VRB03KT 2SM BR SCT050
     FM020800 22005KT 1/2SM FG VV002
     FM021300 24004KT 4SM BR BKN050
     FM021400 24006KT 6SM BR BKN025
     FM021600 25011G18KT P6SM BKN035
     FM022300 27007KT P6SM BKN050=

USA.gov is the U.S. government's official web portal to all federal, state and local government web resources and services.